sensor_id;sensor_type;location;lat;lon;timestamp;P1;durP1;ratioP1;P2;durP2;ratioP2
38693;SDS011;24447;43.460;25.744;2022-10-14T00:00:34;3.17;;;1.40;;
38693;SDS011;24447;43.460;25.744;2022-10-14T00:03:00;5.68;;;2.13;;
38693;SDS011;24447;43.460;25.744;2022-10-14T00:05:26;3.42;;;1.35;;
38693;SDS011;24447;43.460;25.744;2022-10-14T00:07:52;3.28;;;1.98;;
38693;SDS011;24447;43.460;25.744;2022-10-14T00:10:18;8.05;;;4.20;;
38693;SDS011;24447;43.460;25.744;2022-10-14T00:12:44;10.43;;;5.18;;
38693;SDS011;24447;43.460;25.744;2022-10-14T00:15:11;6.47;;;3.50;;
38693;SDS011;24447;43.460;25.744;2022-10-14T00:17:37;9.95;;;3.40;;
38693;SDS011;24447;43.460;25.744;2022-10-14T00:20:04;2.58;;;1.75;;
38693;SDS011;24447;43.460;25.744;2022-10-14T00:22:30;5.90;;;2.00;;
38693;SDS011;24447;43.460;25.744;2022-10-14T00:24:56;4.07;;;2.13;;
38693;SDS011;24447;43.460;25.744;2022-10-14T00:27:22;4.85;;;2.53;;
38693;SDS011;24447;43.460;25.744;2022-10-14T00:29:48;4.50;;;2.65;;
38693;SDS011;24447;43.460;25.744;2022-10-14T00:32:14;5.68;;;1.75;;
38693;SDS011;24447;43.460;25.744;2022-10-14T00:34:41;4.22;;;1.52;;
38693;SDS011;24447;43.460;25.744;2022-10-14T00:37:07;1.42;;;1.00;;
38693;SDS011;24447;43.460;25.744;2022-10-14T00:39:33;7.40;;;1.42;;
38693;SDS011;24447;43.460;25.744;2022-10-14T00:41:59;1.95;;;1.45;;
38693;SDS011;24447;43.460;25.744;2022-10-14T00:46:51;5.20;;;1.42;;
38693;SDS011;24447;43.460;25.744;2022-10-14T00:49:22;4.05;;;1.70;;
38693;SDS011;24447;43.460;25.744;2022-10-14T00:51:54;1.52;;;1.42;;
38693;SDS011;24447;43.460;25.744;2022-10-14T00:54:24;1.52;;;1.42;;
38693;SDS011;24447;43.460;25.744;2022-10-14T00:56:54;2.47;;;1.52;;
38693;SDS011;24447;43.460;25.744;2022-10-14T00:59:20;4.85;;;2.30;;
38693;SDS011;24447;43.460;25.744;2022-10-14T01:01:46;6.82;;;2.47;;
38693;SDS011;24447;43.460;25.744;2022-10-14T01:04:12;4.13;;;1.90;;
38693;SDS011;24447;43.460;25.744;2022-10-14T01:14:48;5.72;;;1.95;;
38693;SDS011;24447;43.460;25.744;2022-10-14T01:22:28;3.90;;;1.95;;
38693;SDS011;24447;43.460;25.744;2022-10-14T01:28:15;5.75;;;2.20;;
38693;SDS011;24447;43.460;25.744;2022-10-14T01:30:48;2.85;;;1.88;;
38693;SDS011;24447;43.460;25.744;2022-10-14T01:33:19;4.68;;;3.17;;
38693;SDS011;24447;43.460;25.744;2022-10-14T01:38:35;6.45;;;4.30;;
38693;SDS011;24447;43.460;25.744;2022-10-14T01:41:10;4.78;;;2.53;;
38693;SDS011;24447;43.460;25.744;2022-10-14T01:43:40;5.18;;;1.50;;
38693;SDS011;24447;43.460;25.744;2022-10-14T01:46:09;1.45;;;1.30;;
38693;SDS011;24447;43.460;25.744;2022-10-14T01:48:37;9.32;;;3.67;;
38693;SDS011;24447;43.460;25.744;2022-10-14T01:51:07;11.60;;;5.25;;
38693;SDS011;24447;43.460;25.744;2022-10-14T01:53:38;12.60;;;4.28;;
38693;SDS011;24447;43.460;25.744;2022-10-14T01:56:06;5.80;;;3.10;;
38693;SDS011;24447;43.460;25.744;2022-10-14T01:58:33;7.40;;;2.88;;
38693;SDS011;24447;43.460;25.744;2022-10-14T02:01:02;5.78;;;2.65;;
38693;SDS011;24447;43.460;25.744;2022-10-14T02:03:39;2.22;;;1.77;;
38693;SDS011;24447;43.460;25.744;2022-10-14T02:06:07;3.30;;;1.38;;
38693;SDS011;24447;43.460;25.744;2022-10-14T02:11:15;4.63;;;1.55;;
38693;SDS011;24447;43.460;25.744;2022-10-14T02:21:45;2.67;;;2.08;;
38693;SDS011;24447;43.460;25.744;2022-10-14T02:24:18;2.63;;;1.73;;
38693;SDS011;24447;43.460;25.744;2022-10-14T02:26:46;2.83;;;1.50;;
38693;SDS011;24447;43.460;25.744;2022-10-14T02:29:13;4.13;;;1.77;;
38693;SDS011;24447;43.460;25.744;2022-10-14T02:31:39;2.50;;;1.85;;
38693;SDS011;24447;43.460;25.744;2022-10-14T02:34:06;4.88;;;1.63;;
38693;SDS011;24447;43.460;25.744;2022-10-14T02:36:36;6.57;;;1.43;;
38693;SDS011;24447;43.460;25.744;2022-10-14T02:39:02;2.55;;;1.23;;
38693;SDS011;24447;43.460;25.744;2022-10-14T02:41:32;3.17;;;1.25;;
38693;SDS011;24447;43.460;25.744;2022-10-14T02:44:00;3.53;;;1.65;;
38693;SDS011;24447;43.460;25.744;2022-10-14T02:46:26;5.43;;;2.58;;
38693;SDS011;24447;43.460;25.744;2022-10-14T02:48:53;6.18;;;2.17;;
38693;SDS011;24447;43.460;25.744;2022-10-14T02:51:19;4.97;;;1.92;;
38693;SDS011;24447;43.460;25.744;2022-10-14T02:53:44;2.25;;;1.92;;
38693;SDS011;24447;43.460;25.744;2022-10-14T02:56:11;5.25;;;2.08;;
38693;SDS011;24447;43.460;25.744;2022-10-14T02:58:38;2.47;;;2.28;;
38693;SDS011;24447;43.460;25.744;2022-10-14T03:01:04;4.68;;;3.00;;
38693;SDS011;24447;43.460;25.744;2022-10-14T03:03:30;3.63;;;2.53;;
38693;SDS011;24447;43.460;25.744;2022-10-14T03:05:56;7.10;;;3.17;;
38693;SDS011;24447;43.460;25.744;2022-10-14T03:08:22;4.18;;;2.40;;
38693;SDS011;24447;43.460;25.744;2022-10-14T03:10:48;7.72;;;3.35;;
38693;SDS011;24447;43.460;25.744;2022-10-14T03:13:14;6.80;;;2.88;;
38693;SDS011;24447;43.460;25.744;2022-10-14T03:15:40;3.53;;;1.67;;
38693;SDS011;24447;43.460;25.744;2022-10-14T03:18:06;1.75;;;1.05;;
38693;SDS011;24447;43.460;25.744;2022-10-14T03:20:32;2.40;;;1.30;;
38693;SDS011;24447;43.460;25.744;2022-10-14T03:22:57;3.95;;;2.22;;
38693;SDS011;24447;43.460;25.744;2022-10-14T03:25:23;1.95;;;1.15;;
38693;SDS011;24447;43.460;25.744;2022-10-14T03:27:49;2.95;;;1.70;;
38693;SDS011;24447;43.460;25.744;2022-10-14T03:30:15;6.80;;;1.10;;
38693;SDS011;24447;43.460;25.744;2022-10-14T03:32:41;5.05;;;2.10;;
38693;SDS011;24447;43.460;25.744;2022-10-14T03:35:07;6.13;;;2.15;;
38693;SDS011;24447;43.460;25.744;2022-10-14T03:37:34;6.70;;;2.08;;
38693;SDS011;24447;43.460;25.744;2022-10-14T03:40:00;2.53;;;1.08;;
38693;SDS011;24447;43.460;25.744;2022-10-14T03:42:26;2.88;;;1.35;;
38693;SDS011;24447;43.460;25.744;2022-10-14T03:44:52;5.13;;;1.95;;
38693;SDS011;24447;43.460;25.744;2022-10-14T03:47:18;5.20;;;2.22;;
38693;SDS011;24447;43.460;25.744;2022-10-14T03:49:43;3.95;;;2.17;;
38693;SDS011;24447;43.460;25.744;2022-10-14T03:52:09;6.80;;;2.95;;
38693;SDS011;24447;43.460;25.744;2022-10-14T03:54:35;6.93;;;2.65;;
38693;SDS011;24447;43.460;25.744;2022-10-14T03:57:01;4.88;;;3.55;;
38693;SDS011;24447;43.460;25.744;2022-10-14T03:59:27;4.28;;;3.25;;
38693;SDS011;24447;43.460;25.744;2022-10-14T04:01:53;4.97;;;2.13;;
38693;SDS011;24447;43.460;25.744;2022-10-14T04:04:19;8.13;;;3.22;;
38693;SDS011;24447;43.460;25.744;2022-10-14T04:06:45;4.10;;;2.50;;
38693;SDS011;24447;43.460;25.744;2022-10-14T04:09:11;5.97;;;2.55;;
38693;SDS011;24447;43.460;25.744;2022-10-14T04:11:37;2.03;;;1.48;;
38693;SDS011;24447;43.460;25.744;2022-10-14T04:14:03;5.28;;;2.88;;
38693;SDS011;24447;43.460;25.744;2022-10-14T04:16:29;2.30;;;1.70;;
38693;SDS011;24447;43.460;25.744;2022-10-14T04:18:56;3.00;;;2.00;;
38693;SDS011;24447;43.460;25.744;2022-10-14T04:21:22;3.55;;;1.60;;
38693;SDS011;24447;43.460;25.744;2022-10-14T04:23:49;2.55;;;1.35;;
38693;SDS011;24447;43.460;25.744;2022-10-14T04:26:15;4.13;;;1.63;;
38693;SDS011;24447;43.460;25.744;2022-10-14T04:28:41;3.53;;;1.88;;
38693;SDS011;24447;43.460;25.744;2022-10-14T04:31:10;1.45;;;1.00;;
38693;SDS011;24447;43.460;25.744;2022-10-14T04:33:36;1.05;;;0.95;;
38693;SDS011;24447;43.460;25.744;2022-10-14T04:36:03;4.32;;;1.55;;
38693;SDS011;24447;43.460;25.744;2022-10-14T04:38:31;1.77;;;1.25;;
38693;SDS011;24447;43.460;25.744;2022-10-14T04:41:00;1.95;;;1.35;;
38693;SDS011;24447;43.460;25.744;2022-10-14T04:43:26;3.95;;;1.40;;
38693;SDS011;24447;43.460;25.744;2022-10-14T04:45:52;5.82;;;1.17;;
38693;SDS011;24447;43.460;25.744;2022-10-14T04:48:18;2.33;;;1.20;;
38693;SDS011;24447;43.460;25.744;2022-10-14T04:50:44;3.00;;;1.73;;
38693;SDS011;24447;43.460;25.744;2022-10-14T04:53:10;2.03;;;1.33;;
38693;SDS011;24447;43.460;25.744;2022-10-14T04:55:36;7.20;;;2.10;;
38693;SDS011;24447;43.460;25.744;2022-10-14T04:58:02;2.90;;;2.08;;
38693;SDS011;24447;43.460;25.744;2022-10-14T05:00:28;2.17;;;1.90;;
38693;SDS011;24447;43.460;25.744;2022-10-14T05:02:54;2.67;;;1.10;;
38693;SDS011;24447;43.460;25.744;2022-10-14T05:05:20;5.65;;;2.30;;
38693;SDS011;24447;43.460;25.744;2022-10-14T05:07:46;5.13;;;2.22;;
38693;SDS011;24447;43.460;25.744;2022-10-14T05:10:12;7.25;;;2.65;;
38693;SDS011;24447;43.460;25.744;2022-10-14T05:12:38;6.70;;;1.65;;
38693;SDS011;24447;43.460;25.744;2022-10-14T05:15:04;2.10;;;1.52;;
38693;SDS011;24447;43.460;25.744;2022-10-14T05:17:31;3.42;;;1.33;;
38693;SDS011;24447;43.460;25.744;2022-10-14T05:19:57;6.72;;;2.13;;
38693;SDS011;24447;43.460;25.744;2022-10-14T05:22:24;4.28;;;1.88;;
38693;SDS011;24447;43.460;25.744;2022-10-14T05:24:50;3.78;;;2.33;;
38693;SDS011;24447;43.460;25.744;2022-10-14T05:27:16;3.15;;;1.67;;
38693;SDS011;24447;43.460;25.744;2022-10-14T05:29:42;3.83;;;1.50;;
38693;SDS011;24447;43.460;25.744;2022-10-14T05:32:08;6.32;;;2.70;;
38693;SDS011;24447;43.460;25.744;2022-10-14T05:34:34;3.25;;;1.58;;
38693;SDS011;24447;43.460;25.744;2022-10-14T05:37:00;3.60;;;1.55;;
38693;SDS011;24447;43.460;25.744;2022-10-14T05:39:26;1.98;;;1.58;;
38693;SDS011;24447;43.460;25.744;2022-10-14T05:41:52;6.68;;;2.00;;
38693;SDS011;24447;43.460;25.744;2022-10-14T05:44:18;6.47;;;1.73;;
38693;SDS011;24447;43.460;25.744;2022-10-14T05:46:44;8.30;;;2.55;;
38693;SDS011;24447;43.460;25.744;2022-10-14T05:49:10;3.10;;;1.95;;
38693;SDS011;24447;43.460;25.744;2022-10-14T05:51:36;2.55;;;1.75;;
38693;SDS011;24447;43.460;25.744;2022-10-14T05:54:02;3.10;;;1.52;;
38693;SDS011;24447;43.460;25.744;2022-10-14T05:56:29;2.25;;;1.35;;
38693;SDS011;24447;43.460;25.744;2022-10-14T05:58:55;5.07;;;1.20;;
38693;SDS011;24447;43.460;25.744;2022-10-14T06:01:21;1.08;;;0.95;;
38693;SDS011;24447;43.460;25.744;2022-10-14T06:03:51;3.65;;;1.25;;
38693;SDS011;24447;43.460;25.744;2022-10-14T06:06:17;4.00;;;2.15;;
38693;SDS011;24447;43.460;25.744;2022-10-14T06:08:43;4.45;;;1.40;;
38693;SDS011;24447;43.460;25.744;2022-10-14T06:11:10;5.10;;;1.80;;
38693;SDS011;24447;43.460;25.744;2022-10-14T06:13:37;6.75;;;1.48;;
38693;SDS011;24447;43.460;25.744;2022-10-14T06:16:04;8.05;;;1.27;;
38693;SDS011;24447;43.460;25.744;2022-10-14T06:18:32;2.75;;;1.52;;
38693;SDS011;24447;43.460;25.744;2022-10-14T06:20:59;2.50;;;1.25;;
38693;SDS011;24447;43.460;25.744;2022-10-14T06:23:25;2.17;;;1.13;;
38693;SDS011;24447;43.460;25.744;2022-10-14T06:25:52;1.63;;;1.42;;
38693;SDS011;24447;43.460;25.744;2022-10-14T06:28:19;4.32;;;1.40;;
38693;SDS011;24447;43.460;25.744;2022-10-14T06:30:52;3.13;;;1.60;;
38693;SDS011;24447;43.460;25.744;2022-10-14T06:33:19;3.67;;;1.90;;
38693;SDS011;24447;43.460;25.744;2022-10-14T06:35:46;2.58;;;1.75;;
38693;SDS011;24447;43.460;25.744;2022-10-14T06:38:13;2.70;;;1.98;;
38693;SDS011;24447;43.460;25.744;2022-10-14T06:40:39;2.25;;;1.65;;
38693;SDS011;24447;43.460;25.744;2022-10-14T06:43:06;3.25;;;2.35;;
38693;SDS011;24447;43.460;25.744;2022-10-14T06:45:32;4.45;;;2.22;;
38693;SDS011;24447;43.460;25.744;2022-10-14T06:47:58;2.88;;;1.90;;
38693;SDS011;24447;43.460;25.744;2022-10-14T06:50:25;4.05;;;2.13;;
38693;SDS011;24447;43.460;25.744;2022-10-14T06:52:51;2.45;;;2.03;;
38693;SDS011;24447;43.460;25.744;2022-10-14T06:55:17;4.57;;;2.38;;
38693;SDS011;24447;43.460;25.744;2022-10-14T06:57:44;2.00;;;1.50;;
38693;SDS011;24447;43.460;25.744;2022-10-14T07:00:10;5.60;;;2.80;;
38693;SDS011;24447;43.460;25.744;2022-10-14T07:02:37;3.63;;;2.22;;
38693;SDS011;24447;43.460;25.744;2022-10-14T07:05:03;4.60;;;2.22;;
38693;SDS011;24447;43.460;25.744;2022-10-14T07:07:30;2.95;;;2.10;;
38693;SDS011;24447;43.460;25.744;2022-10-14T07:09:57;5.93;;;1.98;;
38693;SDS011;24447;43.460;25.744;2022-10-14T07:12:24;3.38;;;2.08;;
38693;SDS011;24447;43.460;25.744;2022-10-14T07:14:51;5.35;;;2.65;;
38693;SDS011;24447;43.460;25.744;2022-10-14T07:17:17;5.88;;;2.72;;
38693;SDS011;24447;43.460;25.744;2022-10-14T07:19:44;1.60;;;1.25;;
38693;SDS011;24447;43.460;25.744;2022-10-14T07:22:10;1.85;;;1.42;;
38693;SDS011;24447;43.460;25.744;2022-10-14T07:24:37;4.15;;;1.83;;
38693;SDS011;24447;43.460;25.744;2022-10-14T07:27:03;1.80;;;1.55;;
38693;SDS011;24447;43.460;25.744;2022-10-14T07:29:30;2.38;;;1.10;;
38693;SDS011;24447;43.460;25.744;2022-10-14T07:31:56;3.13;;;1.67;;
38693;SDS011;24447;43.460;25.744;2022-10-14T07:34:23;3.25;;;1.45;;
38693;SDS011;24447;43.460;25.744;2022-10-14T07:36:49;2.55;;;1.63;;
38693;SDS011;24447;43.460;25.744;2022-10-14T07:39:16;2.00;;;1.23;;
38693;SDS011;24447;43.460;25.744;2022-10-14T07:41:42;5.40;;;1.90;;
38693;SDS011;24447;43.460;25.744;2022-10-14T07:44:09;1.75;;;1.33;;
38693;SDS011;24447;43.460;25.744;2022-10-14T07:46:39;3.95;;;1.48;;
38693;SDS011;24447;43.460;25.744;2022-10-14T07:51:38;2.00;;;1.30;;
38693;SDS011;24447;43.460;25.744;2022-10-14T07:54:06;1.90;;;1.30;;
38693;SDS011;24447;43.460;25.744;2022-10-14T07:56:35;1.75;;;1.40;;
38693;SDS011;24447;43.460;25.744;2022-10-14T07:59:03;4.88;;;1.75;;
38693;SDS011;24447;43.460;25.744;2022-10-14T08:01:29;2.72;;;1.67;;
38693;SDS011;24447;43.460;25.744;2022-10-14T08:03:56;1.92;;;1.75;;
38693;SDS011;24447;43.460;25.744;2022-10-14T08:06:25;0.90;;;0.90;;
38693;SDS011;24447;43.460;25.744;2022-10-14T08:08:52;3.15;;;1.85;;
38693;SDS011;24447;43.460;25.744;2022-10-14T08:11:20;2.47;;;1.73;;
38693;SDS011;24447;43.460;25.744;2022-10-14T08:13:57;2.22;;;1.38;;
38693;SDS011;24447;43.460;25.744;2022-10-14T08:16:26;7.45;;;2.13;;
38693;SDS011;24447;43.460;25.744;2022-10-14T08:18:54;4.85;;;1.92;;
38693;SDS011;24447;43.460;25.744;2022-10-14T08:21:22;3.25;;;2.13;;
38693;SDS011;24447;43.460;25.744;2022-10-14T08:23:49;7.68;;;3.10;;
38693;SDS011;24447;43.460;25.744;2022-10-14T08:26:33;16.13;;;2.83;;
38693;SDS011;24447;43.460;25.744;2022-10-14T08:29:04;1.60;;;1.50;;
38693;SDS011;24447;43.460;25.744;2022-10-14T08:31:39;2.03;;;1.80;;
38693;SDS011;24447;43.460;25.744;2022-10-14T08:34:06;4.13;;;2.40;;
38693;SDS011;24447;43.460;25.744;2022-10-14T08:36:35;1.63;;;1.52;;
38693;SDS011;24447;43.460;25.744;2022-10-14T08:39:02;4.68;;;2.03;;
38693;SDS011;24447;43.460;25.744;2022-10-14T08:41:42;13.80;;;2.33;;
38693;SDS011;24447;43.460;25.744;2022-10-14T08:44:17;5.13;;;1.92;;
38693;SDS011;24447;43.460;25.744;2022-10-14T08:52:15;1.90;;;1.63;;
38693;SDS011;24447;43.460;25.744;2022-10-14T08:54:44;7.45;;;2.00;;
38693;SDS011;24447;43.460;25.744;2022-10-14T08:57:15;2.35;;;1.90;;
38693;SDS011;24447;43.460;25.744;2022-10-14T08:59:44;3.50;;;2.10;;
38693;SDS011;24447;43.460;25.744;2022-10-14T09:02:27;8.65;;;2.38;;
38693;SDS011;24447;43.460;25.744;2022-10-14T09:04:58;3.28;;;2.15;;
38693;SDS011;24447;43.460;25.744;2022-10-14T09:07:26;1.95;;;1.60;;
38693;SDS011;24447;43.460;25.744;2022-10-14T09:10:12;3.00;;;1.77;;
38693;SDS011;24447;43.460;25.744;2022-10-14T09:12:52;3.25;;;2.00;;
38693;SDS011;24447;43.460;25.744;2022-10-14T09:15:23;4.40;;;2.28;;
38693;SDS011;24447;43.460;25.744;2022-10-14T09:18:07;7.35;;;2.92;;
38693;SDS011;24447;43.460;25.744;2022-10-14T09:20:37;4.75;;;2.40;;
38693;SDS011;24447;43.460;25.744;2022-10-14T09:28:21;4.10;;;1.90;;
38693;SDS011;24447;43.460;25.744;2022-10-14T09:30:54;11.85;;;2.13;;
38693;SDS011;24447;43.460;25.744;2022-10-14T09:33:23;6.30;;;2.70;;
38693;SDS011;24447;43.460;25.744;2022-10-14T09:35:55;2.10;;;1.73;;
38693;SDS011;24447;43.460;25.744;2022-10-14T09:38:22;11.57;;;2.85;;
38693;SDS011;24447;43.460;25.744;2022-10-14T09:40:50;1.92;;;1.83;;
38693;SDS011;24447;43.460;25.744;2022-10-14T09:43:20;5.43;;;1.77;;
38693;SDS011;24447;43.460;25.744;2022-10-14T09:50:57;2.35;;;1.23;;
38693;SDS011;24447;43.460;25.744;2022-10-14T09:53:30;4.07;;;1.83;;
38693;SDS011;24447;43.460;25.744;2022-10-14T09:56:07;1.50;;;1.38;;
38693;SDS011;24447;43.460;25.744;2022-10-14T10:01:04;4.05;;;1.77;;
38693;SDS011;24447;43.460;25.744;2022-10-14T10:03:37;3.30;;;2.20;;
38693;SDS011;24447;43.460;25.744;2022-10-14T10:06:12;9.15;;;2.22;;
38693;SDS011;24447;43.460;25.744;2022-10-14T10:11:37;5.65;;;1.90;;
38693;SDS011;24447;43.460;25.744;2022-10-14T10:16:46;5.10;;;2.05;;
38693;SDS011;24447;43.460;25.744;2022-10-14T10:21:54;5.57;;;2.10;;
38693;SDS011;24447;43.460;25.744;2022-10-14T10:24:42;2.75;;;1.55;;
38693;SDS011;24447;43.460;25.744;2022-10-14T10:27:45;1.65;;;1.55;;
38693;SDS011;24447;43.460;25.744;2022-10-14T10:38:29;4.47;;;1.90;;
38693;SDS011;24447;43.460;25.744;2022-10-14T10:48:55;3.65;;;2.17;;
38693;SDS011;24447;43.460;25.744;2022-10-14T10:56:51;2.78;;;1.80;;
38693;SDS011;24447;43.460;25.744;2022-10-14T11:37:15;3.80;;;2.47;;
38693;SDS011;24447;43.460;25.744;2022-10-14T11:42:47;5.10;;;2.67;;
38693;SDS011;24447;43.460;25.744;2022-10-14T11:45:33;3.40;;;2.33;;
38693;SDS011;24447;43.460;25.744;2022-10-14T11:50:50;7.00;;;2.63;;
38693;SDS011;24447;43.460;25.744;2022-10-14T11:53:33;4.70;;;2.50;;
38693;SDS011;24447;43.460;25.744;2022-10-14T11:56:10;9.70;;;3.33;;
38693;SDS011;24447;43.460;25.744;2022-10-14T11:58:42;3.58;;;2.60;;
38693;SDS011;24447;43.460;25.744;2022-10-14T12:01:09;6.55;;;3.00;;
38693;SDS011;24447;43.460;25.744;2022-10-14T12:11:39;5.15;;;3.20;;
38693;SDS011;24447;43.460;25.744;2022-10-14T12:14:15;10.18;;;3.95;;
38693;SDS011;24447;43.460;25.744;2022-10-14T12:16:47;6.25;;;3.22;;
38693;SDS011;24447;43.460;25.744;2022-10-14T12:19:16;6.60;;;2.88;;
38693;SDS011;24447;43.460;25.744;2022-10-14T12:21:48;7.13;;;2.58;;
38693;SDS011;24447;43.460;25.744;2022-10-14T12:24:20;5.33;;;2.23;;
38693;SDS011;24447;43.460;25.744;2022-10-14T12:26:51;7.75;;;3.30;;
38693;SDS011;24447;43.460;25.744;2022-10-14T12:29:31;4.28;;;2.67;;
38693;SDS011;24447;43.460;25.744;2022-10-14T12:34:33;6.35;;;2.97;;
38693;SDS011;24447;43.460;25.744;2022-10-14T12:40:31;7.88;;;3.10;;
38693;SDS011;24447;43.460;25.744;2022-10-14T12:45:14;6.78;;;2.83;;
38693;SDS011;24447;43.460;25.744;2022-10-14T12:47:44;6.28;;;3.08;;
38693;SDS011;24447;43.460;25.744;2022-10-14T12:52:40;5.78;;;3.25;;
38693;SDS011;24447;43.460;25.744;2022-10-14T12:55:20;11.52;;;3.38;;
38693;SDS011;24447;43.460;25.744;2022-10-14T12:57:57;8.15;;;3.40;;
38693;SDS011;24447;43.460;25.744;2022-10-14T13:00:27;6.50;;;2.70;;
38693;SDS011;24447;43.460;25.744;2022-10-14T13:02:55;3.75;;;2.60;;
38693;SDS011;24447;43.460;25.744;2022-10-14T13:05:28;9.68;;;4.40;;
38693;SDS011;24447;43.460;25.744;2022-10-14T13:37:58;6.38;;;3.80;;
38693;SDS011;24447;43.460;25.744;2022-10-14T13:43:10;11.30;;;4.88;;
38693;SDS011;24447;43.460;25.744;2022-10-14T13:45:43;6.90;;;2.88;;
38693;SDS011;24447;43.460;25.744;2022-10-14T13:48:15;7.60;;;3.60;;
38693;SDS011;24447;43.460;25.744;2022-10-14T13:50:43;8.55;;;3.20;;
38693;SDS011;24447;43.460;25.744;2022-10-14T13:53:16;6.07;;;2.95;;
38693;SDS011;24447;43.460;25.744;2022-10-14T13:55:44;4.78;;;2.85;;
38693;SDS011;24447;43.460;25.744;2022-10-14T14:00:40;7.38;;;2.97;;
38693;SDS011;24447;43.460;25.744;2022-10-14T14:03:21;7.78;;;3.78;;
38693;SDS011;24447;43.460;25.744;2022-10-14T14:05:52;10.25;;;3.42;;
38693;SDS011;24447;43.460;25.744;2022-10-14T14:08:22;6.97;;;3.03;;
38693;SDS011;24447;43.460;25.744;2022-10-14T14:10:57;7.20;;;3.60;;
38693;SDS011;24447;43.460;25.744;2022-10-14T14:13:28;9.02;;;3.42;;
38693;SDS011;24447;43.460;25.744;2022-10-14T14:15:57;7.43;;;3.00;;
38693;SDS011;24447;43.460;25.744;2022-10-14T14:23:27;6.95;;;3.25;;
38693;SDS011;24447;43.460;25.744;2022-10-14T14:25:53;4.75;;;2.70;;
38693;SDS011;24447;43.460;25.744;2022-10-14T14:28:19;3.70;;;2.33;;
38693;SDS011;24447;43.460;25.744;2022-10-14T14:30:52;6.40;;;3.15;;
38693;SDS011;24447;43.460;25.744;2022-10-14T14:33:29;4.75;;;3.33;;
38693;SDS011;24447;43.460;25.744;2022-10-14T14:35:57;5.68;;;3.10;;
38693;SDS011;24447;43.460;25.744;2022-10-14T14:38:26;5.65;;;2.70;;
38693;SDS011;24447;43.460;25.744;2022-10-14T14:43:36;4.13;;;2.40;;
38693;SDS011;24447;43.460;25.744;2022-10-14T14:46:03;4.68;;;2.42;;
38693;SDS011;24447;43.460;25.744;2022-10-14T14:48:29;3.45;;;1.90;;
38693;SDS011;24447;43.460;25.744;2022-10-14T14:50:55;4.93;;;2.33;;
38693;SDS011;24447;43.460;25.744;2022-10-14T14:53:22;5.38;;;2.40;;
38693;SDS011;24447;43.460;25.744;2022-10-14T14:58:24;5.75;;;2.90;;
38693;SDS011;24447;43.460;25.744;2022-10-14T15:00:55;10.65;;;4.70;;
38693;SDS011;24447;43.460;25.744;2022-10-14T15:03:23;7.95;;;3.17;;
38693;SDS011;24447;43.460;25.744;2022-10-14T15:06:01;13.65;;;5.75;;
38693;SDS011;24447;43.460;25.744;2022-10-14T15:08:33;12.38;;;4.68;;
38693;SDS011;24447;43.460;25.744;2022-10-14T15:11:02;5.60;;;3.67;;
38693;SDS011;24447;43.460;25.744;2022-10-14T15:15:57;7.28;;;3.60;;
38693;SDS011;24447;43.460;25.744;2022-10-14T15:18:27;7.18;;;3.28;;
38693;SDS011;24447;43.460;25.744;2022-10-14T15:21:12;7.13;;;3.50;;
38693;SDS011;24447;43.460;25.744;2022-10-14T15:26:20;5.65;;;3.35;;
38693;SDS011;24447;43.460;25.744;2022-10-14T15:29:00;7.35;;;3.17;;
38693;SDS011;24447;43.460;25.744;2022-10-14T15:31:36;9.07;;;3.45;;
38693;SDS011;24447;43.460;25.744;2022-10-14T15:34:03;5.97;;;3.05;;
38693;SDS011;24447;43.460;25.744;2022-10-14T15:36:30;8.23;;;3.42;;
38693;SDS011;24447;43.460;25.744;2022-10-14T15:38:57;6.95;;;3.22;;
38693;SDS011;24447;43.460;25.744;2022-10-14T15:41:25;9.68;;;3.97;;
38693;SDS011;24447;43.460;25.744;2022-10-14T15:43:51;11.13;;;4.65;;
38693;SDS011;24447;43.460;25.744;2022-10-14T15:46:17;13.20;;;5.55;;
38693;SDS011;24447;43.460;25.744;2022-10-14T15:49:03;15.82;;;5.90;;
38693;SDS011;24447;43.460;25.744;2022-10-14T15:51:30;10.55;;;5.00;;
38693;SDS011;24447;43.460;25.744;2022-10-14T15:53:56;12.38;;;4.85;;
38693;SDS011;24447;43.460;25.744;2022-10-14T15:56:22;10.57;;;4.60;;
38693;SDS011;24447;43.460;25.744;2022-10-14T15:58:48;8.10;;;3.90;;
38693;SDS011;24447;43.460;25.744;2022-10-14T16:01:15;8.52;;;3.85;;
38693;SDS011;24447;43.460;25.744;2022-10-14T16:03:44;8.07;;;3.53;;
38693;SDS011;24447;43.460;25.744;2022-10-14T16:06:10;10.60;;;3.80;;
38693;SDS011;24447;43.460;25.744;2022-10-14T16:08:39;11.65;;;4.22;;
38693;SDS011;24447;43.460;25.744;2022-10-14T16:11:09;10.40;;;4.53;;
38693;SDS011;24447;43.460;25.744;2022-10-14T16:13:59;7.35;;;3.42;;
38693;SDS011;24447;43.460;25.744;2022-10-14T16:16:30;10.35;;;3.92;;
38693;SDS011;24447;43.460;25.744;2022-10-14T16:18:58;9.02;;;3.38;;
38693;SDS011;24447;43.460;25.744;2022-10-14T16:21:28;10.13;;;3.65;;
38693;SDS011;24447;43.460;25.744;2022-10-14T16:23:54;13.52;;;4.05;;
38693;SDS011;24447;43.460;25.744;2022-10-14T16:26:22;8.32;;;3.58;;
38693;SDS011;24447;43.460;25.744;2022-10-14T16:28:49;8.48;;;3.97;;
38693;SDS011;24447;43.460;25.744;2022-10-14T16:31:15;11.88;;;4.97;;
38693;SDS011;24447;43.460;25.744;2022-10-14T16:33:41;11.13;;;4.47;;
38693;SDS011;24447;43.460;25.744;2022-10-14T16:36:12;8.32;;;4.00;;
38693;SDS011;24447;43.460;25.744;2022-10-14T16:41:04;8.10;;;3.55;;
38693;SDS011;24447;43.460;25.744;2022-10-14T16:43:32;6.65;;;3.70;;
38693;SDS011;24447;43.460;25.744;2022-10-14T16:45:59;13.65;;;6.18;;
38693;SDS011;24447;43.460;25.744;2022-10-14T16:48:27;12.07;;;4.80;;
38693;SDS011;24447;43.460;25.744;2022-10-14T16:50:53;6.68;;;3.95;;
38693;SDS011;24447;43.460;25.744;2022-10-14T16:53:19;9.02;;;3.55;;
38693;SDS011;24447;43.460;25.744;2022-10-14T16:56:05;5.70;;;3.50;;
38693;SDS011;24447;43.460;25.744;2022-10-14T16:59:00;10.82;;;3.35;;
38693;SDS011;24447;43.460;25.744;2022-10-14T17:01:27;10.20;;;4.25;;
38693;SDS011;24447;43.460;25.744;2022-10-14T17:03:55;9.65;;;4.20;;
38693;SDS011;24447;43.460;25.744;2022-10-14T17:06:22;8.65;;;3.75;;
38693;SDS011;24447;43.460;25.744;2022-10-14T17:08:48;8.38;;;4.05;;
38693;SDS011;24447;43.460;25.744;2022-10-14T17:11:14;9.07;;;3.78;;
38693;SDS011;24447;43.460;25.744;2022-10-14T17:13:40;5.97;;;3.47;;
38693;SDS011;24447;43.460;25.744;2022-10-14T17:16:06;8.05;;;4.00;;
38693;SDS011;24447;43.460;25.744;2022-10-14T17:18:32;8.02;;;4.00;;
38693;SDS011;24447;43.460;25.744;2022-10-14T17:20:59;6.78;;;3.63;;
38693;SDS011;24447;43.460;25.744;2022-10-14T17:23:33;7.53;;;4.18;;
38693;SDS011;24447;43.460;25.744;2022-10-14T17:26:00;10.70;;;4.80;;
38693;SDS011;24447;43.460;25.744;2022-10-14T17:28:27;8.68;;;4.35;;
38693;SDS011;24447;43.460;25.744;2022-10-14T17:30:54;13.02;;;5.97;;
38693;SDS011;24447;43.460;25.744;2022-10-14T17:33:20;7.13;;;3.70;;
38693;SDS011;24447;43.460;25.744;2022-10-14T17:35:53;7.57;;;3.47;;
38693;SDS011;24447;43.460;25.744;2022-10-14T17:38:26;25.70;;;5.15;;
38693;SDS011;24447;43.460;25.744;2022-10-14T17:41:02;6.50;;;3.83;;
38693;SDS011;24447;43.460;25.744;2022-10-14T17:43:29;10.88;;;4.60;;
38693;SDS011;24447;43.460;25.744;2022-10-14T17:46:02;9.32;;;4.38;;
38693;SDS011;24447;43.460;25.744;2022-10-14T17:48:29;11.88;;;4.20;;
38693;SDS011;24447;43.460;25.744;2022-10-14T17:50:55;9.57;;;4.43;;
38693;SDS011;24447;43.460;25.744;2022-10-14T17:53:21;6.88;;;4.10;;
38693;SDS011;24447;43.460;25.744;2022-10-14T17:55:47;17.95;;;4.70;;
38693;SDS011;24447;43.460;25.744;2022-10-14T17:58:13;10.65;;;5.05;;
38693;SDS011;24447;43.460;25.744;2022-10-14T18:00:39;7.05;;;3.92;;